Greenfield Park, Canada
Current Conditions -  °F | °C
As of 6:03 PM on Saturday 20 Dec 2014 (Local Time) from CYHU Reporting Station
Light Snow Light Snow  
Wind Chill: -2°   Ceiling: 500
Heat Index:   Visibility: 1.7mi
Dew Point:   Wind: 5mph
Humidity: 92%   Direction: 50°NE
Pressure: 30.36"   Gusts: NA
Location:  45.5°N, 73.48°W
Report Text: CYHU 202303Z AUTO 05004KT 1 3/4SM -SN BKN005 M14/M15 A3036 RMK SLP284
Loading
Personal Weather Stations






























Interactive Weather Map New forecast layout! Learn more

10-Day Weather Forecast

Advertisements
Track Severe Weather on mobile